Latest Weather Observations for High Range (Wanganderry)

IDN60801

Issued at 1:02 pm EDT Monday 23 January 2017 (issued every 30 minutes, with the page automatically refreshed every 10 minutes)

About weather observations | Map of weather stations | Latest weather observations for NSW | Other Formats
Station Details ID: 068262 Name: HIGH RANGE AWS (WANGANDERRY) Lat: -34.33 Lon: 150.27 Height: 813.6 m
Data from the previous 72 hours. | See also: Recent months for locations in New South Wales
Date/Time
EDT
Temp
°C
App
Temp
°C
Dew
Point
°C
Rel
Hum
%
Delta-T
°C
Wind Press
QNH
hPa
Press
MSL
hPa
Rain since
9am
mm
Dir  Spd
km/h
Gust
km/h
Spd
kts
Gust
kts
23/12:30pm 29.3 28.5 17.2 48 7.9 N 17 26 9 14 1015.4 1011.4 0.0
23/12:00pm 28.6 29.0 17.2 50 7.4 N 11 20 6 11 1015.9 1011.8 0.0
23/11:30am 26.2 25.1 15.3 51 6.8 N 15 24 8 13 1016.0 1012.0 0.0
23/11:00am 26.1 24.6 15.2 51 6.8 NNE 17 24 9 13 1016.1 1012.1 0.0
23/10:30am 24.2 21.5 13.4 51 6.5 NNE 20 28 11 15 1016.3 1012.3 0.0
23/10:00am 22.6 19.1 13.4 56 5.5 NNE 24 32 13 17 1016.7 1012.7 0.0
23/09:30am 22.2 20.1 15.1 64 4.4 NNE 20 30 11 16 1016.9 1012.9 0.0
23/09:00am 20.3 18.4 15.1 72 3.2 NNE 19 24 10 13 1017.2 1013.2 0.2
23/08:30am 18.5 16.4 14.8 79 2.2 NNE 19 28 10 15 1016.7 1012.7 0.2
23/08:00am 16.8 15.9 16.8 100 0.0 NNE 17 20 9 11 1016.6 1012.6 0.2
23/07:30am 15.6 14.2 15.6 100 0.0 NNE 17 19 9 10 1016.4 1012.4 0.2
23/07:00am 15.3 13.8 15.3 100 0.0 NNE 17 19 9 10 1016.3 1012.3 0.2
23/06:30am 15.2 13.1 15.2 100 0.0 NNE 20 24 11 13 1016.1 1012.1 0.2
23/06:00am 15.1 13.5 15.1 100 0.0 NNE 17 22 9 12 1016.0 1012.0 0.2
23/05:30am 15.1 13.2 15.1 100 0.0 NNE 19 22 10 12 1015.8 1011.7 0.2
23/05:00am 15.1 13.5 15.1 100 0.0 NNE 17 24 9 13 1015.7 1011.6 0.2
23/04:30am 15.1 13.0 15.1 100 0.0 NNE 20 26 11 14 1015.5 1011.5 0.2
23/04:00am 15.0 12.4 15.0 100 0.0 NNE 22 26 12 14 1015.8 1011.7 0.2
23/03:30am 14.9 12.7 14.9 100 0.0 NNE 20 24 11 13 1015.9 1011.8 0.2
23/03:00am 14.9 12.6 14.7 99 0.1 NNE 20 24 11 13 1015.9 1011.8 0.2
23/02:30am 14.6 12.2 14.4 99 0.1 NNE 20 24 11 13 1016.1 1012.1 0.2
23/02:00am 14.4 12.1 14.1 98 0.2 NNE 19 22 10 12 1016.4 1012.4 0.2
23/01:30am 14.6 12.3 14.1 97 0.3 NNE 19 22 10 12 1016.7 1012.7 0.2
23/01:00am 14.8 12.5 14.2 96 0.4 NNE 19 22 10 12 1017.2 1013.2 0.2
23/12:30am 15.0 12.7 14.0 94 0.6 NNE 19 22 10 12 1017.6 1013.6 0.2
23/12:00am 15.1 12.8 14.0 93 0.6 NNE 19 24 10 13 1017.7 1013.7 0.2
 
Date/Time
EDT
Temp
°C
App
Temp
°C
Dew
Point
°C
Rel
Hum
%
Delta-T
°C
Wind Press
QNH
hPa
Press
MSL
hPa
Rain since
9am
mm
Dir  Spd
km/h
Gust
km/h
Spd
kts
Gust
kts
22/11:30pm 15.3 12.7 13.8 91 0.9 NNE 20 26 11 14 1017.7 1013.7 0.2
22/11:00pm 15.7 13.1 13.9 89 1.1 NNE 20 26 11 14 1017.8 1013.8 0.2
22/10:30pm 16.2 13.3 13.9 86 1.4 NNE 22 28 12 15 1017.9 1013.9 0.2
22/10:00pm 16.6 13.3 13.9 84 1.6 NNE 24 32 13 17 1017.7 1013.7 0.2
22/09:30pm 17.1 13.7 13.6 80 2.1 NNE 24 32 13 17 1017.6 1013.6 0.2
22/09:00pm 17.8 13.7 13.7 77 2.4 NE 28 33 15 18 1017.4 1013.4 0.2
22/08:30pm 18.5 14.4 13.8 74 2.8 NE 28 35 15 19 1017.3 1013.3 0.2
22/08:00pm 19.4 15.4 14.0 71 3.2 NE 28 33 15 18 1017.1 1013.1 0.2
22/07:30pm 20.6 16.2 14.0 66 4.0 NE 30 35 16 19 1016.8 1012.8 0.2
22/07:00pm 21.8 18.2 14.2 62 4.6 NE 26 35 14 19 1016.7 1012.7 0.2
22/06:30pm 22.9 19.8 14.5 59 5.1 NNE 24 33 13 18 1016.4 1012.4 0.2
22/06:00pm 23.8 20.2 14.2 55 5.9 NE 26 37 14 20 1016.2 1012.2 0.2
22/05:30pm 24.4 20.8 14.2 53 6.2 NE 26 35 14 19 1016.2 1012.2 0.2
22/05:00pm 25.0 21.9 14.5 52 6.5 NE 24 35 13 19 1016.5 1012.5 0.2
22/04:30pm 25.2 21.8 13.7 49 7.0 NE 24 35 13 19 1016.6 1012.6 0.2
22/04:00pm 25.4 22.8 13.9 49 7.0 NNE 20 32 11 17 1016.7 1012.7 0.2
22/03:30pm 26.2 23.9 14.6 48 7.2 NE 20 28 11 15 1016.9 1012.9 0.2
22/03:00pm 25.0 23.1 14.2 51 6.6 NE 17 28 9 15 1017.3 1013.3 0.2
22/02:30pm 25.8 23.7 14.6 50 6.9 NE 19 28 10 15 1017.5 1013.5 0.2
22/02:00pm 24.8 22.5 14.0 51 6.6 NE 19 30 10 16 1017.7 1013.7 0.2
22/01:30pm 23.3 21.5 13.2 53 6.1 NNE 15 26 8 14 1018.0 1014.0 0.2
22/01:00pm 23.9 22.4 14.3 55 5.9 NE 15 24 8 13 1018.2 1014.3 0.2
22/12:30pm 23.2 21.2 13.9 56 5.6 NE 17 28 9 15 1018.7 1014.7 0.2
22/12:00pm 22.8 20.3 13.6 56 5.5 NE 19 28 10 15 1018.9 1014.9 0.2
22/11:30am 21.4 19.1 13.1 59 4.9 NNE 17 26 9 14 1019.0 1015.0 0.2
22/11:00am 19.8 16.9 12.3 62 4.4 N 19 28 10 15 1019.1 1015.1 0.2
22/10:30am 19.1 15.3 12.4 65 3.9 NNE 24 32 13 17 1019.1 1015.1 0.2
22/10:00am 18.7 15.2 12.2 66 3.7 NNE 22 32 12 17 1019.1 1015.1 0.0
22/09:30am 17.7 14.1 11.9 69 3.3 NNE 22 32 12 17 1019.3 1015.4 0.0
22/09:00am 17.4 14.5 12.9 75 2.6 NNE 20 28 11 15 1019.3 1015.4 0.0
22/08:30am 14.7 11.2 12.2 85 1.4 NNE 22 30 12 16 1019.3 1015.4 0.0
22/08:00am 14.1 12.3 12.1 88 1.1 NNE 13 17 7 9 1019.2 1015.2 0.0
22/07:30am 13.2 10.5 11.8 91 0.8 NNE 17 20 9 11 1018.8 1014.8 0.0
22/07:00am 12.6 9.5 11.5 93 0.6 NNE 19 20 10 11 1018.8 1014.8 0.0
22/06:30am 12.3 9.5 11.4 94 0.5 NNE 17 20 9 11 1018.6 1014.6 0.0
22/06:00am 12.2 10.1 11.3 94 0.5 NNE 13 17 7 9 1018.6 1014.6 0.0
22/05:30am 12.2 10.9 11.4 95 0.4 NNE 9 13 5 7 1018.6 1014.6 0.0
22/05:00am 12.2 11.0 11.7 97 0.3 NE 9 11 5 6 1018.4 1014.4 0.0
22/04:30am 12.1 11.5 11.8 98 0.2 ENE 6 7 3 4 1018.2 1014.3 0.0
22/04:00am 11.9 11.1 11.6 98 0.2 NE 7 11 4 6 1018.1 1014.1 0.0
22/03:30am 11.9 11.3 11.6 98 0.2 ENE 6 9 3 5 1018.2 1014.3 0.0
22/03:00am 11.9 11.3 11.6 98 0.2 ENE 6 9 3 5 1018.5 1014.5 0.0
22/02:30am 11.9 11.1 11.6 98 0.2 ENE 7 9 4 5 1018.6 1014.6 0.0
22/02:00am 11.9 10.7 11.6 98 0.2 ENE 9 15 5 8 1018.7 1014.7 0.0
22/01:30am 11.9 10.6 11.4 97 0.3 E 9 13 5 7 1018.8 1014.8 0.0
22/01:00am 12.2 10.7 11.9 98 0.2 E 11 19 6 10 1019.0 1015.0 0.0
22/12:30am 12.3 10.8 11.8 97 0.3 ESE 11 17 6 9 1019.0 1015.0 0.0
22/12:00am 12.7 11.3 12.1 96 0.3 E 11 17 6 9 1018.9 1014.9 0.0
 
Date/Time
EDT
Temp
°C
App
Temp
°C
Dew
Point
°C
Rel
Hum
%
Delta-T
°C
Wind Press
QNH
hPa
Press
MSL
hPa
Rain since
9am
mm
Dir  Spd
km/h
Gust
km/h
Spd
kts
Gust
kts
21/11:30pm 13.1 11.7 12.3 95 0.4 E 11 15 6 8 1018.8 1014.8 0.0
21/11:00pm 13.4 12.0 12.1 92 0.7 E 11 15 6 8 1018.8 1014.8 0.0
21/10:30pm 13.6 11.7 11.8 89 1.0 ENE 13 17 7 9 1018.8 1014.8 0.0
21/10:00pm 13.9 12.5 12.1 89 1.0 E 11 19 6 10 1018.8 1014.8 0.0
21/09:30pm 14.0 11.7 11.9 87 1.2 E 15 20 8 11 1018.5 1014.5 0.0
21/09:00pm 14.3 12.0 11.6 84 1.5 ESE 15 22 8 12 1018.1 1014.1 0.0
21/08:30pm 14.7 12.0 11.8 83 1.6 E 17 22 9 12 1017.8 1013.8 0.0
21/08:00pm 15.4 12.4 12.0 80 1.9 E 19 28 10 15 1017.3 1013.3 0.0
21/07:30pm 16.5 12.9 11.9 74 2.6 ENE 22 28 12 15 1016.3 1012.3 0.0
21/07:00pm 17.5 13.9 11.8 69 3.2 ENE 22 32 12 17 1015.7 1011.6 0.0
21/06:30pm 18.6 15.0 11.7 64 3.9 ENE 22 32 12 17 1015.0 1011.0 0.0
21/06:00pm 20.1 16.5 11.8 59 4.8 ENE 22 32 12 17 1014.5 1010.4 0.0
21/05:30pm 21.8 18.0 12.4 55 5.5 NE 24 35 13 19 1014.1 1010.1 0.0
21/05:00pm 22.8 18.9 12.1 51 6.3 NE 24 30 13 16 1013.6 1009.5 0.0
21/04:30pm 24.0 21.0 12.6 49 6.8 ENE 20 28 11 15 1013.6 1009.5 0.0
21/04:00pm 25.0 21.5 12.2 44 7.6 NE 22 30 12 16 1013.6 1009.5 0.0
21/03:30pm 25.0 21.2 11.2 42 8.1 NE 22 33 12 18 1013.5 1009.4 0.0
21/03:00pm 25.8 23.6 6.4 29 10.5 ENE 7 20 4 11 1013.4 1009.3 0.0
21/02:30pm 26.0 24.1 6.6 29 10.5 WNW 6 9 3 5 1013.4 1009.3 0.0
21/02:00pm 24.8 22.6 6.1 30 10.0 ESE 7 15 4 8 1013.4 1009.3 0.0
21/01:30pm 23.6 21.2 4.5 29 9.9 SSW 6 11 3 6 1013.5 1009.4 0.0
21/01:00pm 23.9 21.1 5.3 30 9.8 SSW 9 15 5 8 1013.6 1009.5 0.0
21/12:30pm 22.7 19.2 3.3 28 9.7 S 11 19 6 10 1013.7 1009.6 0.0
21/12:00pm 22.0 19.5 6.7 37 8.1 SSW 9 17 5 9 1013.6 1009.5 0.0
21/11:30am 20.9 18.3 6.1 38 7.7 S 9 15 5 8 1013.5 1009.4 0.0
21/11:00am 20.4 18.6 9.3 49 6.1 SSW 9 17 5 9 1013.4 1009.3 0.0
21/10:30am 19.1 17.6 9.3 53 5.4 W 7 9 4 5 1013.4 1009.3 0.0
21/10:00am 18.6 17.4 9.7 56 4.9 SSW 6 11 3 6 1013.2 1009.1 0.0
21/09:30am 17.0 15.7 9.9 63 3.9 SW 7 11 4 6 1012.7 1008.7 0.0
21/09:00am 16.0 14.4 10.1 68 3.2 S 9 17 5 9 1012.6 1008.5 7.4
21/08:30am 16.1 13.1 9.3 64 3.7 S 15 19 8 10 1012.3 1008.2 7.4
21/08:00am 14.9 12.4 9.7 71 2.8 S 13 17 7 9 1011.8 1007.7 7.4
21/07:30am 14.7 11.8 8.0 64 3.5 SSW 13 17 7 9 1011.3 1007.2 7.4
21/07:00am 14.1 11.6 8.1 67 3.1 SW 11 13 6 7 1010.7 1006.6 7.4
21/06:30am 13.3 10.1 8.4 72 2.6 SSW 15 17 8 9 1010.2 1006.1 7.4
21/06:00am 13.4 9.9 8.7 73 2.5 SSW 17 20 9 11 1009.9 1005.8 7.4
21/05:30am 13.4 11.3 9.6 78 2.0 SSW 11 13 6 7 1009.3 1005.1 7.4
21/05:00am 13.6 11.9 10.0 79 1.9 SSW 9 11 5 6 1008.6 1004.5 7.4
21/04:30am 13.9 12.6 11.2 84 1.5 S 9 11 5 6 1008.2 1004.0 7.4
21/04:00am 14.7 13.2 12.0 84 1.5 SSW 11 15 6 8 1008.1 1003.9 7.4
21/03:30am 15.0 13.4 12.9 87 1.2 S 13 17 7 9 1008.0 1003.8 7.4
21/03:00am 16.3 16.9 15.3 94 0.6 SSE 6 9 3 5 1007.5 1003.4 7.4
21/02:30am 16.7 17.6 15.1 90 1.0 SSW 4 4 2 2 1007.2 1003.1 7.4
21/02:00am 16.6 15.7 13.7 83 1.7 WSW 11 15 6 8 1006.9 1002.7 7.4
21/01:30am 17.3 15.0 14.0 81 2.0 WSW 19 24 10 13 1006.6 1002.4 7.4
21/01:00am 18.0 16.7 14.7 81 2.0 WSW 15 24 8 13 1006.3 1002.2 7.4
21/12:30am 18.1 18.5 16.4 90 1.1 SSW 9 20 5 11 1006.0 1001.9 7.4
21/12:00am 18.6 16.4 14.5 77 2.5 WSW 19 24 10 13 1005.4 1001.2 7.4
 
Date/Time
EDT
Temp
°C
App
Temp
°C
Dew
Point
°C
Rel
Hum
%
Delta-T
°C
Wind Press
QNH
hPa
Press
MSL
hPa
Rain since
9am
mm
Dir  Spd
km/h
Gust
km/h
Spd
kts
Gust
kts
20/11:30pm 18.6 17.2 14.5 77 2.5 WSW 15 19 8 10 1004.9 1000.8 7.4
20/11:00pm 18.7 16.4 14.6 77 2.5 SW 20 24 11 13 1004.5 1000.3 7.4
20/10:30pm 18.8 16.6 14.9 78 2.4 SW 20 28 11 15 1004.0 999.8 7.4
20/10:00pm 18.5 16.3 15.0 80 2.1 SW 20 28 11 15 1003.2 999.0 7.4
20/09:30pm 18.2 15.8 14.3 78 2.3 SW 20 33 11 18 1002.6 998.3 7.4
20/09:00pm 19.5 14.7 14.5 73 3.0 WSW 33 46 18 25 1001.5 997.2 7.4
20/08:30pm 19.9 15.5 15.7 77 2.6 WSW 33 46 18 25 1000.5 996.3 7.4
20/08:07pm 20.6 15.8 15.6 73 3.1 WSW 35 56 19 30 1000.2 995.9 7.4
20/08:00pm 21.0 15.0 15.5 71 3.4 WSW 41 56 22 30 999.9 995.6 7.4
20/07:46pm 21.2 16.2 16.2 73 3.1 WSW 37 56 20 30 999.7 995.5 7.4
20/07:30pm 21.7 16.5 16.6 73 3.2 WSW 39 54 21 29 999.6 995.4 7.4
20/07:19pm 22.0 17.7 16.9 73 3.2 WSW 35 56 19 30 999.1 994.8 7.4
20/07:00pm 22.1 19.8 18.5 80 2.3 WSW 28 44 15 24 998.9 994.6 7.4
20/06:30pm 21.4 17.9 19.5 89 1.2 WSW 37 59 20 32 998.8 994.5 7.4
20/06:04pm 21.5 18.8 20.5 94 0.7 WSW 35 54 19 29 998.3 994.1 7.4
20/06:00pm 21.7 19.8 20.9 95 0.5 WSW 32 44 17 24 998.3 994.1 7.4
20/05:30pm 23.2 23.2 20.2 83 2.0 W 20 33 11 18 997.5 993.2 5.8
20/05:00pm 23.0 22.7 20.3 85 1.8 WSW 22 32 12 17 997.0 992.7 5.8
20/04:30pm 22.0 22.3 20.3 90 1.1 WSW 19 26 10 14 997.5 993.2 5.8
20/04:00pm 23.6 22.9 19.5 78 2.7 WNW 22 37 12 20 997.4 993.1 4.6
20/03:37pm 23.8 21.9 19.3 76 3.0 W 28 48 15 26 997.4 993.1 4.6
20/03:30pm 24.2 22.5 19.7 76 3.0 WNW 28 48 15 26 997.5 993.2 4.6
20/03:00pm 21.5 21.9 19.8 90 1.1 WNW 17 30 9 16 998.2 993.9 4.6
20/02:30pm 22.6 21.7 19.8 84 1.9 WNW 24 46 13 25 998.4 994.2 4.6
20/02:00pm 21.4 21.7 19.5 89 1.3 WNW 17 24 9 13 998.8 994.5 4.6
20/01:30pm 20.9 20.9 19.0 89 1.2 NW 17 32 9 17 999.2 994.9 4.6

Other Formats:

Comma delimited format used in spreadsheet applications
http://www.bom.gov.au/fwo/IDN60801/IDN60801.99742.axf

JavaScript Object Notation format (JSON) in row-major order
http://www.bom.gov.au/fwo/IDN60801/IDN60801.99742.json